sensor_id;sensor_type;location;lat;lon;timestamp;temperature;humidity
17341;DHT22;8788;49.930;8.660;2023-02-14T00:00:08;5.50;99.90
17341;DHT22;8788;49.930;8.660;2023-02-14T00:02:35;5.50;99.90
17341;DHT22;8788;49.930;8.660;2023-02-14T00:05:02;5.40;99.90
17341;DHT22;8788;49.930;8.660;2023-02-14T00:07:30;5.40;99.90
17341;DHT22;8788;49.930;8.660;2023-02-14T00:09:58;5.40;99.90
17341;DHT22;8788;49.930;8.660;2023-02-14T00:12:26;5.40;99.90
17341;DHT22;8788;49.930;8.660;2023-02-14T00:14:53;5.30;99.90
17341;DHT22;8788;49.930;8.660;2023-02-14T00:17:37;5.30;99.90
17341;DHT22;8788;49.930;8.660;2023-02-14T00:20:06;5.30;99.90
17341;DHT22;8788;49.930;8.660;2023-02-14T00:22:33;5.30;99.90
17341;DHT22;8788;49.930;8.660;2023-02-14T00:25:02;5.30;99.90
17341;DHT22;8788;49.930;8.660;2023-02-14T00:27:29;5.20;99.90
17341;DHT22;8788;49.930;8.660;2023-02-14T00:30:00;5.20;99.90
17341;DHT22;8788;49.930;8.660;2023-02-14T00:32:28;5.20;99.90
17341;DHT22;8788;49.930;8.660;2023-02-14T00:34:55;5.20;99.90
17341;DHT22;8788;49.930;8.660;2023-02-14T00:37:22;5.10;99.90
17341;DHT22;8788;49.930;8.660;2023-02-14T00:39:52;5.10;99.90
17341;DHT22;8788;49.930;8.660;2023-02-14T00:42:20;5.10;99.90
17341;DHT22;8788;49.930;8.660;2023-02-14T00:44:47;5.00;99.90
17341;DHT22;8788;49.930;8.660;2023-02-14T00:47:14;4.90;99.90
17341;DHT22;8788;49.930;8.660;2023-02-14T00:49:41;4.90;99.90
17341;DHT22;8788;49.930;8.660;2023-02-14T00:52:08;4.90;99.90
17341;DHT22;8788;49.930;8.660;2023-02-14T00:54:35;4.90;99.90
17341;DHT22;8788;49.930;8.660;2023-02-14T00:57:02;4.80;99.90
17341;DHT22;8788;49.930;8.660;2023-02-14T00:59:31;4.80;99.90
17341;DHT22;8788;49.930;8.660;2023-02-14T01:01:58;4.80;99.90
17341;DHT22;8788;49.930;8.660;2023-02-14T01:04:25;4.80;99.90
17341;DHT22;8788;49.930;8.660;2023-02-14T01:06:52;4.80;99.90
17341;DHT22;8788;49.930;8.660;2023-02-14T01:09:19;4.80;99.90
17341;DHT22;8788;49.930;8.660;2023-02-14T01:11:46;4.80;99.90
17341;DHT22;8788;49.930;8.660;2023-02-14T01:14:14;4.80;99.90
17341;DHT22;8788;49.930;8.660;2023-02-14T01:16:43;4.90;99.90
17341;DHT22;8788;49.930;8.660;2023-02-14T01:19:10;4.90;99.90
17341;DHT22;8788;49.930;8.660;2023-02-14T01:21:37;5.00;99.90
17341;DHT22;8788;49.930;8.660;2023-02-14T01:24:06;5.00;99.90
17341;DHT22;8788;49.930;8.660;2023-02-14T01:26:33;5.10;99.90
17341;DHT22;8788;49.930;8.660;2023-02-14T01:29:01;5.10;99.90
17341;DHT22;8788;49.930;8.660;2023-02-14T01:31:32;5.10;99.90
17341;DHT22;8788;49.930;8.660;2023-02-14T01:34:01;5.10;99.90
17341;DHT22;8788;49.930;8.660;2023-02-14T01:36:31;5.10;99.90
17341;DHT22;8788;49.930;8.660;2023-02-14T01:39:00;5.10;99.90
17341;DHT22;8788;49.930;8.660;2023-02-14T01:41:29;5.10;99.90
17341;DHT22;8788;49.930;8.660;2023-02-14T01:43:59;5.10;99.90
17341;DHT22;8788;49.930;8.660;2023-02-14T01:46:28;5.00;99.90
17341;DHT22;8788;49.930;8.660;2023-02-14T01:49:03;5.00;99.90
17341;DHT22;8788;49.930;8.660;2023-02-14T01:51:34;4.90;99.90
17341;DHT22;8788;49.930;8.660;2023-02-14T01:54:05;4.80;99.90
17341;DHT22;8788;49.930;8.660;2023-02-14T01:56:36;4.70;99.90
17341;DHT22;8788;49.930;8.660;2023-02-14T01:59:07;4.70;99.90
17341;DHT22;8788;49.930;8.660;2023-02-14T02:01:36;4.60;99.90
17341;DHT22;8788;49.930;8.660;2023-02-14T02:04:08;4.60;99.90
17341;DHT22;8788;49.930;8.660;2023-02-14T02:06:38;4.60;99.90
17341;DHT22;8788;49.930;8.660;2023-02-14T02:09:11;4.60;99.90
17341;DHT22;8788;49.930;8.660;2023-02-14T02:11:40;4.50;99.90
17341;DHT22;8788;49.930;8.660;2023-02-14T02:14:12;4.50;99.90
17341;DHT22;8788;49.930;8.660;2023-02-14T02:17:08;4.40;99.90
17341;DHT22;8788;49.930;8.660;2023-02-14T02:20:11;4.40;99.90
17341;DHT22;8788;49.930;8.660;2023-02-14T02:23:09;4.40;99.90
17341;DHT22;8788;49.930;8.660;2023-02-14T02:26:11;4.40;99.90
17341;DHT22;8788;49.930;8.660;2023-02-14T02:29:01;4.30;99.90
17341;DHT22;8788;49.930;8.660;2023-02-14T02:32:02;4.30;99.90
17341;DHT22;8788;49.930;8.660;2023-02-14T02:35:02;4.30;99.90
17341;DHT22;8788;49.930;8.660;2023-02-14T02:37:39;4.30;99.90
17341;DHT22;8788;49.930;8.660;2023-02-14T02:40:22;4.30;99.90
17341;DHT22;8788;49.930;8.660;2023-02-14T02:42:58;4.30;99.90
17341;DHT22;8788;49.930;8.660;2023-02-14T02:45:42;4.20;99.90
17341;DHT22;8788;49.930;8.660;2023-02-14T02:48:34;4.20;99.90
17341;DHT22;8788;49.930;8.660;2023-02-14T02:51:11;4.10;99.90
17341;DHT22;8788;49.930;8.660;2023-02-14T02:54:02;4.10;99.90
17341;DHT22;8788;49.930;8.660;2023-02-14T02:56:36;4.00;99.90
17341;DHT22;8788;49.930;8.660;2023-02-14T02:59:18;4.00;99.90
17341;DHT22;8788;49.930;8.660;2023-02-14T03:02:00;3.90;99.90
17341;DHT22;8788;49.930;8.660;2023-02-14T03:04:27;3.80;99.90
17341;DHT22;8788;49.930;8.660;2023-02-14T03:07:19;3.80;99.90
17341;DHT22;8788;49.930;8.660;2023-02-14T03:10:11;3.70;99.90
17341;DHT22;8788;49.930;8.660;2023-02-14T03:16:38;3.70;99.90
17341;DHT22;8788;49.930;8.660;2023-02-14T03:22:35;3.70;99.90
17341;DHT22;8788;49.930;8.660;2023-02-14T03:25:10;3.70;99.90
17341;DHT22;8788;49.930;8.660;2023-02-14T03:27:46;3.70;99.90
17341;DHT22;8788;49.930;8.660;2023-02-14T03:30:21;3.60;99.90
17341;DHT22;8788;49.930;8.660;2023-02-14T03:32:58;3.60;99.90
17341;DHT22;8788;49.930;8.660;2023-02-14T03:35:32;3.60;99.90
17341;DHT22;8788;49.930;8.660;2023-02-14T03:38:07;3.60;99.90
17341;DHT22;8788;49.930;8.660;2023-02-14T03:40:37;3.60;99.90
17341;DHT22;8788;49.930;8.660;2023-02-14T03:43:09;3.60;99.90
17341;DHT22;8788;49.930;8.660;2023-02-14T03:45:39;3.50;99.90
17341;DHT22;8788;49.930;8.660;2023-02-14T03:48:09;3.50;99.90
17341;DHT22;8788;49.930;8.660;2023-02-14T03:50:39;3.50;99.90
17341;DHT22;8788;49.930;8.660;2023-02-14T03:53:10;3.40;99.90
17341;DHT22;8788;49.930;8.660;2023-02-14T03:55:42;3.40;99.90
17341;DHT22;8788;49.930;8.660;2023-02-14T03:58:15;3.40;99.90
17341;DHT22;8788;49.930;8.660;2023-02-14T04:00:46;3.40;99.90
17341;DHT22;8788;49.930;8.660;2023-02-14T04:03:16;3.40;99.90
17341;DHT22;8788;49.930;8.660;2023-02-14T04:05:44;3.50;99.90
17341;DHT22;8788;49.930;8.660;2023-02-14T04:08:21;3.40;99.90
17341;DHT22;8788;49.930;8.660;2023-02-14T04:10:49;3.40;99.90
17341;DHT22;8788;49.930;8.660;2023-02-14T04:13:17;3.30;99.90
17341;DHT22;8788;49.930;8.660;2023-02-14T04:15:44;3.30;99.90
17341;DHT22;8788;49.930;8.660;2023-02-14T04:18:11;3.30;99.90
17341;DHT22;8788;49.930;8.660;2023-02-14T04:20:55;3.30;99.90
17341;DHT22;8788;49.930;8.660;2023-02-14T04:23:24;3.40;99.90
17341;DHT22;8788;49.930;8.660;2023-02-14T04:25:51;3.40;99.90
17341;DHT22;8788;49.930;8.660;2023-02-14T04:28:18;3.40;99.90
17341;DHT22;8788;49.930;8.660;2023-02-14T04:30:45;3.30;99.90
17341;DHT22;8788;49.930;8.660;2023-02-14T04:33:12;3.30;99.90
17341;DHT22;8788;49.930;8.660;2023-02-14T04:35:39;3.30;99.90
17341;DHT22;8788;49.930;8.660;2023-02-14T04:38:06;3.30;99.90
17341;DHT22;8788;49.930;8.660;2023-02-14T04:40:35;3.30;99.90
17341;DHT22;8788;49.930;8.660;2023-02-14T04:43:02;3.40;99.90
17341;DHT22;8788;49.930;8.660;2023-02-14T04:45:29;3.40;99.90
17341;DHT22;8788;49.930;8.660;2023-02-14T04:47:56;3.40;99.90
17341;DHT22;8788;49.930;8.660;2023-02-14T04:50:23;3.30;99.90
17341;DHT22;8788;49.930;8.660;2023-02-14T04:52:51;3.30;99.90
17341;DHT22;8788;49.930;8.660;2023-02-14T04:55:18;3.30;99.90
17341;DHT22;8788;49.930;8.660;2023-02-14T04:57:47;3.30;99.90
17341;DHT22;8788;49.930;8.660;2023-02-14T05:00:14;3.30;99.90
17341;DHT22;8788;49.930;8.660;2023-02-14T05:02:42;3.30;99.90
17341;DHT22;8788;49.930;8.660;2023-02-14T05:05:09;3.30;99.90
17341;DHT22;8788;49.930;8.660;2023-02-14T05:07:36;3.30;99.90
17341;DHT22;8788;49.930;8.660;2023-02-14T05:10:04;3.30;99.90
17341;DHT22;8788;49.930;8.660;2023-02-14T05:12:31;3.30;99.90
17341;DHT22;8788;49.930;8.660;2023-02-14T05:14:59;3.30;99.90
17341;DHT22;8788;49.930;8.660;2023-02-14T05:17:26;3.30;99.90
17341;DHT22;8788;49.930;8.660;2023-02-14T05:19:53;3.30;99.90
17341;DHT22;8788;49.930;8.660;2023-02-14T05:22:20;3.40;99.90
17341;DHT22;8788;49.930;8.660;2023-02-14T05:24:47;3.40;99.90
17341;DHT22;8788;49.930;8.660;2023-02-14T05:27:14;3.40;99.90
17341;DHT22;8788;49.930;8.660;2023-02-14T05:29:41;3.50;99.90
17341;DHT22;8788;49.930;8.660;2023-02-14T05:32:10;3.50;99.90
17341;DHT22;8788;49.930;8.660;2023-02-14T05:34:37;3.50;99.90
17341;DHT22;8788;49.930;8.660;2023-02-14T05:37:04;3.60;99.90
17341;DHT22;8788;49.930;8.660;2023-02-14T05:39:31;3.60;99.90
17341;DHT22;8788;49.930;8.660;2023-02-14T05:41:58;3.60;99.90
17341;DHT22;8788;49.930;8.660;2023-02-14T05:44:25;3.60;99.90
17341;DHT22;8788;49.930;8.660;2023-02-14T05:46:52;3.70;99.90
17341;DHT22;8788;49.930;8.660;2023-02-14T05:49:21;3.70;99.90
17341;DHT22;8788;49.930;8.660;2023-02-14T05:51:49;3.70;99.90
17341;DHT22;8788;49.930;8.660;2023-02-14T05:54:16;3.70;99.90
17341;DHT22;8788;49.930;8.660;2023-02-14T05:56:43;3.80;99.90
17341;DHT22;8788;49.930;8.660;2023-02-14T05:59:10;3.80;99.90
17341;DHT22;8788;49.930;8.660;2023-02-14T06:01:38;3.80;99.90
17341;DHT22;8788;49.930;8.660;2023-02-14T06:04:05;3.70;99.90
17341;DHT22;8788;49.930;8.660;2023-02-14T06:06:34;3.80;99.90
17341;DHT22;8788;49.930;8.660;2023-02-14T06:09:01;3.80;99.90
17341;DHT22;8788;49.930;8.660;2023-02-14T06:11:28;3.90;99.90
17341;DHT22;8788;49.930;8.660;2023-02-14T06:13:55;3.90;99.90
17341;DHT22;8788;49.930;8.660;2023-02-14T06:16:22;4.00;99.90
17341;DHT22;8788;49.930;8.660;2023-02-14T06:18:49;4.00;99.90
17341;DHT22;8788;49.930;8.660;2023-02-14T06:21:16;4.10;99.90
17341;DHT22;8788;49.930;8.660;2023-02-14T06:23:45;4.10;99.90
17341;DHT22;8788;49.930;8.660;2023-02-14T06:26:12;4.00;99.90
17341;DHT22;8788;49.930;8.660;2023-02-14T06:28:39;4.00;99.90
17341;DHT22;8788;49.930;8.660;2023-02-14T06:31:07;4.00;99.90
17341;DHT22;8788;49.930;8.660;2023-02-14T06:33:36;4.00;99.90
17341;DHT22;8788;49.930;8.660;2023-02-14T06:36:03;4.00;99.90
17341;DHT22;8788;49.930;8.660;2023-02-14T06:38:30;4.10;99.90
17341;DHT22;8788;49.930;8.660;2023-02-14T06:41:03;4.10;99.90
17341;DHT22;8788;49.930;8.660;2023-02-14T06:43:30;4.00;99.90
17341;DHT22;8788;49.930;8.660;2023-02-14T06:45:57;4.00;99.90
17341;DHT22;8788;49.930;8.660;2023-02-14T06:48:24;4.00;99.90
17341;DHT22;8788;49.930;8.660;2023-02-14T06:50:51;4.00;99.90
17341;DHT22;8788;49.930;8.660;2023-02-14T06:53:19;3.90;99.90
17341;DHT22;8788;49.930;8.660;2023-02-14T06:55:46;3.90;99.90
17341;DHT22;8788;49.930;8.660;2023-02-14T06:58:15;3.90;99.90
17341;DHT22;8788;49.930;8.660;2023-02-14T07:00:42;4.00;99.90
17341;DHT22;8788;49.930;8.660;2023-02-14T07:03:09;4.00;99.90
17341;DHT22;8788;49.930;8.660;2023-02-14T07:05:36;4.10;99.90
17341;DHT22;8788;49.930;8.660;2023-02-14T07:08:04;4.10;99.90
17341;DHT22;8788;49.930;8.660;2023-02-14T07:10:32;4.10;99.90
17341;DHT22;8788;49.930;8.660;2023-02-14T07:13:00;4.10;99.90
17341;DHT22;8788;49.930;8.660;2023-02-14T07:15:28;4.10;99.90
17341;DHT22;8788;49.930;8.660;2023-02-14T07:17:56;4.10;99.90
17341;DHT22;8788;49.930;8.660;2023-02-14T07:20:23;4.10;99.90
17341;DHT22;8788;49.930;8.660;2023-02-14T07:22:50;4.20;99.90
17341;DHT22;8788;49.930;8.660;2023-02-14T07:25:17;4.20;99.90
17341;DHT22;8788;49.930;8.660;2023-02-14T07:27:44;4.20;99.90
17341;DHT22;8788;49.930;8.660;2023-02-14T07:30:12;4.30;99.90
17341;DHT22;8788;49.930;8.660;2023-02-14T07:32:41;4.30;99.90
17341;DHT22;8788;49.930;8.660;2023-02-14T07:35:08;4.30;99.90
17341;DHT22;8788;49.930;8.660;2023-02-14T07:37:36;4.30;99.90
17341;DHT22;8788;49.930;8.660;2023-02-14T07:40:03;4.40;99.90
17341;DHT22;8788;49.930;8.660;2023-02-14T07:42:30;4.40;99.90
17341;DHT22;8788;49.930;8.660;2023-02-14T07:44:58;4.40;99.90
17341;DHT22;8788;49.930;8.660;2023-02-14T07:47:25;4.50;99.90
17341;DHT22;8788;49.930;8.660;2023-02-14T07:49:54;4.50;99.90
17341;DHT22;8788;49.930;8.660;2023-02-14T07:52:21;4.60;99.90
17341;DHT22;8788;49.930;8.660;2023-02-14T07:54:48;4.50;99.90
17341;DHT22;8788;49.930;8.660;2023-02-14T07:57:16;4.50;99.90
17341;DHT22;8788;49.930;8.660;2023-02-14T07:59:43;4.50;99.90
17341;DHT22;8788;49.930;8.660;2023-02-14T08:02:11;4.50;99.90
17341;DHT22;8788;49.930;8.660;2023-02-14T08:04:38;4.50;99.90
17341;DHT22;8788;49.930;8.660;2023-02-14T08:07:07;4.50;99.90
17341;DHT22;8788;49.930;8.660;2023-02-14T08:09:34;4.50;99.90
17341;DHT22;8788;49.930;8.660;2023-02-14T08:12:01;4.60;99.90
17341;DHT22;8788;49.930;8.660;2023-02-14T08:14:57;4.70;99.90
17341;DHT22;8788;49.930;8.660;2023-02-14T08:17:44;4.70;99.90
17341;DHT22;8788;49.930;8.660;2023-02-14T08:20:11;4.70;99.90
17341;DHT22;8788;49.930;8.660;2023-02-14T08:22:40;4.70;99.90
17341;DHT22;8788;49.930;8.660;2023-02-14T08:25:07;4.70;99.90
17341;DHT22;8788;49.930;8.660;2023-02-14T08:27:34;4.70;99.90
17341;DHT22;8788;49.930;8.660;2023-02-14T08:30:01;4.70;99.90
17341;DHT22;8788;49.930;8.660;2023-02-14T08:32:29;4.70;99.90
17341;DHT22;8788;49.930;8.660;2023-02-14T08:34:56;4.70;99.90
17341;DHT22;8788;49.930;8.660;2023-02-14T08:37:23;4.80;99.90
17341;DHT22;8788;49.930;8.660;2023-02-14T08:39:51;4.80;99.90
17341;DHT22;8788;49.930;8.660;2023-02-14T08:42:18;4.80;99.90
17341;DHT22;8788;49.930;8.660;2023-02-14T08:44:45;4.80;99.90
17341;DHT22;8788;49.930;8.660;2023-02-14T08:47:12;4.80;99.90
17341;DHT22;8788;49.930;8.660;2023-02-14T08:49:39;4.90;99.90
17341;DHT22;8788;49.930;8.660;2023-02-14T08:52:06;4.90;99.90
17341;DHT22;8788;49.930;8.660;2023-02-14T08:54:33;4.90;99.90
17341;DHT22;8788;49.930;8.660;2023-02-14T08:57:02;5.00;99.90
17341;DHT22;8788;49.930;8.660;2023-02-14T08:59:29;5.00;99.90
17341;DHT22;8788;49.930;8.660;2023-02-14T09:01:56;5.00;99.90
17341;DHT22;8788;49.930;8.660;2023-02-14T09:04:23;5.00;99.90
17341;DHT22;8788;49.930;8.660;2023-02-14T09:06:50;5.00;99.90
17341;DHT22;8788;49.930;8.660;2023-02-14T09:09:17;5.00;99.90
17341;DHT22;8788;49.930;8.660;2023-02-14T09:11:45;5.00;99.90
17341;DHT22;8788;49.930;8.660;2023-02-14T09:14:13;5.00;99.90
17341;DHT22;8788;49.930;8.660;2023-02-14T09:16:40;5.00;99.90
17341;DHT22;8788;49.930;8.660;2023-02-14T09:19:07;5.00;99.90
17341;DHT22;8788;49.930;8.660;2023-02-14T09:21:34;5.00;99.90
17341;DHT22;8788;49.930;8.660;2023-02-14T09:24:02;4.90;99.90
17341;DHT22;8788;49.930;8.660;2023-02-14T09:26:29;5.00;99.90
17341;DHT22;8788;49.930;8.660;2023-02-14T09:28:57;5.00;99.90
17341;DHT22;8788;49.930;8.660;2023-02-14T09:31:25;5.00;99.90
17341;DHT22;8788;49.930;8.660;2023-02-14T09:33:53;5.00;99.90
17341;DHT22;8788;49.930;8.660;2023-02-14T09:36:20;5.00;99.90
17341;DHT22;8788;49.930;8.660;2023-02-14T09:38:48;5.00;99.90
17341;DHT22;8788;49.930;8.660;2023-02-14T09:41:38;5.00;99.90
17341;DHT22;8788;49.930;8.660;2023-02-14T09:44:19;5.10;99.90
17341;DHT22;8788;49.930;8.660;2023-02-14T09:46:53;5.10;99.90
17341;DHT22;8788;49.930;8.660;2023-02-14T09:49:34;5.10;99.90
17341;DHT22;8788;49.930;8.660;2023-02-14T09:52:04;5.10;99.90
17341;DHT22;8788;49.930;8.660;2023-02-14T09:54:34;5.20;99.90
17341;DHT22;8788;49.930;8.660;2023-02-14T09:57:07;5.20;99.90
17341;DHT22;8788;49.930;8.660;2023-02-14T09:59:40;5.20;99.90
17341;DHT22;8788;49.930;8.660;2023-02-14T10:02:21;5.20;99.90
17341;DHT22;8788;49.930;8.660;2023-02-14T10:04:59;5.30;99.90
17341;DHT22;8788;49.930;8.660;2023-02-14T10:07:32;5.20;99.90
17341;DHT22;8788;49.930;8.660;2023-02-14T10:10:09;5.20;99.90
17341;DHT22;8788;49.930;8.660;2023-02-14T10:12:42;5.10;99.90
17341;DHT22;8788;49.930;8.660;2023-02-14T10:15:14;5.10;99.90
17341;DHT22;8788;49.930;8.660;2023-02-14T10:17:45;5.00;99.90
17341;DHT22;8788;49.930;8.660;2023-02-14T10:20:21;5.10;99.90
17341;DHT22;8788;49.930;8.660;2023-02-14T10:22:55;5.10;99.90
17341;DHT22;8788;49.930;8.660;2023-02-14T10:25:27;5.00;99.90
17341;DHT22;8788;49.930;8.660;2023-02-14T10:27:57;5.00;99.90
17341;DHT22;8788;49.930;8.660;2023-02-14T10:30:24;5.00;99.90
17341;DHT22;8788;49.930;8.660;2023-02-14T10:33:00;5.00;99.90
17341;DHT22;8788;49.930;8.660;2023-02-14T10:35:37;4.90;99.90
17341;DHT22;8788;49.930;8.660;2023-02-14T10:38:14;5.00;99.90
17341;DHT22;8788;49.930;8.660;2023-02-14T10:41:09;5.00;99.90
17341;DHT22;8788;49.930;8.660;2023-02-14T10:43:47;5.10;99.90
17341;DHT22;8788;49.930;8.660;2023-02-14T10:46:32;5.30;99.90
17341;DHT22;8788;49.930;8.660;2023-02-14T10:49:12;5.40;99.90
17341;DHT22;8788;49.930;8.660;2023-02-14T10:51:45;5.50;99.90
17341;DHT22;8788;49.930;8.660;2023-02-14T10:54:20;5.60;99.90
17341;DHT22;8788;49.930;8.660;2023-02-14T10:56:53;5.60;99.90
17341;DHT22;8788;49.930;8.660;2023-02-14T10:59:24;5.60;99.90
17341;DHT22;8788;49.930;8.660;2023-02-14T11:01:54;5.60;99.90
17341;DHT22;8788;49.930;8.660;2023-02-14T11:04:24;5.70;99.90
17341;DHT22;8788;49.930;8.660;2023-02-14T11:06:51;5.70;99.90
17341;DHT22;8788;49.930;8.660;2023-02-14T11:09:19;5.70;99.90
17341;DHT22;8788;49.930;8.660;2023-02-14T11:11:49;5.70;99.90
17341;DHT22;8788;49.930;8.660;2023-02-14T11:14:23;5.80;99.90
17341;DHT22;8788;49.930;8.660;2023-02-14T11:16:51;5.80;99.90
17341;DHT22;8788;49.930;8.660;2023-02-14T11:19:23;5.70;99.90
17341;DHT22;8788;49.930;8.660;2023-02-14T11:21:51;5.80;99.90
17341;DHT22;8788;49.930;8.660;2023-02-14T11:24:25;5.80;99.90
17341;DHT22;8788;49.930;8.660;2023-02-14T11:26:54;5.80;99.90
17341;DHT22;8788;49.930;8.660;2023-02-14T11:29:27;5.90;99.90
17341;DHT22;8788;49.930;8.660;2023-02-14T11:31:55;6.00;99.90
17341;DHT22;8788;49.930;8.660;2023-02-14T11:34:35;6.00;99.90
17341;DHT22;8788;49.930;8.660;2023-02-14T11:37:16;6.10;99.90
17341;DHT22;8788;49.930;8.660;2023-02-14T11:39:44;6.10;99.90
17341;DHT22;8788;49.930;8.660;2023-02-14T11:42:11;6.00;99.90
17341;DHT22;8788;49.930;8.660;2023-02-14T11:44:53;6.00;99.90
17341;DHT22;8788;49.930;8.660;2023-02-14T11:47:25;6.20;99.90
17341;DHT22;8788;49.930;8.660;2023-02-14T11:49:56;6.20;99.90
17341;DHT22;8788;49.930;8.660;2023-02-14T11:52:26;6.20;99.90
17341;DHT22;8788;49.930;8.660;2023-02-14T11:54:55;6.20;99.90
17341;DHT22;8788;49.930;8.660;2023-02-14T11:57:25;6.20;99.90
17341;DHT22;8788;49.930;8.660;2023-02-14T11:59:54;6.30;99.90
17341;DHT22;8788;49.930;8.660;2023-02-14T12:02:29;6.40;99.90
17341;DHT22;8788;49.930;8.660;2023-02-14T12:05:01;6.50;99.90
17341;DHT22;8788;49.930;8.660;2023-02-14T12:07:31;6.50;99.90
17341;DHT22;8788;49.930;8.660;2023-02-14T12:10:17;6.60;99.90
17341;DHT22;8788;49.930;8.660;2023-02-14T12:12:59;6.50;99.90
17341;DHT22;8788;49.930;8.660;2023-02-14T12:15:29;6.50;99.90
17341;DHT22;8788;49.930;8.660;2023-02-14T12:18:29;6.50;99.90
17341;DHT22;8788;49.930;8.660;2023-02-14T12:21:06;6.50;99.90
17341;DHT22;8788;49.930;8.660;2023-02-14T12:23:42;6.70;99.90
17341;DHT22;8788;49.930;8.660;2023-02-14T12:26:17;6.70;99.90
17341;DHT22;8788;49.930;8.660;2023-02-14T12:28:55;6.80;99.90
17341;DHT22;8788;49.930;8.660;2023-02-14T12:31:26;6.80;99.90
17341;DHT22;8788;49.930;8.660;2023-02-14T12:33:53;6.90;99.90
17341;DHT22;8788;49.930;8.660;2023-02-14T12:36:33;7.00;99.90
17341;DHT22;8788;49.930;8.660;2023-02-14T12:39:08;7.10;99.90
17341;DHT22;8788;49.930;8.660;2023-02-14T12:41:46;7.20;99.90
17341;DHT22;8788;49.930;8.660;2023-02-14T12:44:19;7.20;99.90
17341;DHT22;8788;49.930;8.660;2023-02-14T12:47:04;7.20;99.90
17341;DHT22;8788;49.930;8.660;2023-02-14T12:52:47;7.30;99.90
17341;DHT22;8788;49.930;8.660;2023-02-14T12:55:37;7.40;99.90
17341;DHT22;8788;49.930;8.660;2023-02-14T12:58:13;7.50;99.90
17341;DHT22;8788;49.930;8.660;2023-02-14T13:00:48;7.70;99.90
17341;DHT22;8788;49.930;8.660;2023-02-14T13:03:40;7.80;99.90
17341;DHT22;8788;49.930;8.660;2023-02-14T13:06:15;8.00;99.90
17341;DHT22;8788;49.930;8.660;2023-02-14T13:09:08;8.30;99.90
17341;DHT22;8788;49.930;8.660;2023-02-14T13:11:46;8.50;99.90
17341;DHT22;8788;49.930;8.660;2023-02-14T13:14:36;8.70;99.90
17341;DHT22;8788;49.930;8.660;2023-02-14T13:17:13;9.00;99.90
17341;DHT22;8788;49.930;8.660;2023-02-14T13:19:48;9.10;99.90
17341;DHT22;8788;49.930;8.660;2023-02-14T13:22:22;9.10;99.90
17341;DHT22;8788;49.930;8.660;2023-02-14T13:24:55;9.10;99.90
17341;DHT22;8788;49.930;8.660;2023-02-14T13:27:26;9.10;99.90
17341;DHT22;8788;49.930;8.660;2023-02-14T13:29:58;9.30;99.90
17341;DHT22;8788;49.930;8.660;2023-02-14T13:32:29;9.60;99.90
17341;DHT22;8788;49.930;8.660;2023-02-14T13:34:58;10.00;99.90
17341;DHT22;8788;49.930;8.660;2023-02-14T13:37:27;10.20;99.90
17341;DHT22;8788;49.930;8.660;2023-02-14T13:39:58;10.40;99.90
17341;DHT22;8788;49.930;8.660;2023-02-14T13:42:52;10.60;99.90
17341;DHT22;8788;49.930;8.660;2023-02-14T13:48:30;10.80;99.90
17341;DHT22;8788;49.930;8.660;2023-02-14T13:50:59;10.80;99.90
17341;DHT22;8788;49.930;8.660;2023-02-14T13:53:35;11.00;99.90
17341;DHT22;8788;49.930;8.660;2023-02-14T13:58:49;11.30;99.90
17341;DHT22;8788;49.930;8.660;2023-02-14T14:01:37;11.10;99.90
17341;DHT22;8788;49.930;8.660;2023-02-14T14:07:16;11.30;99.90
17341;DHT22;8788;49.930;8.660;2023-02-14T14:09:55;11.30;99.90
17341;DHT22;8788;49.930;8.660;2023-02-14T14:12:47;11.50;99.90
17341;DHT22;8788;49.930;8.660;2023-02-14T14:15:18;11.70;99.90
17341;DHT22;8788;49.930;8.660;2023-02-14T14:20:54;11.80;99.90
17341;DHT22;8788;49.930;8.660;2023-02-14T14:23:32;11.80;99.90
17341;DHT22;8788;49.930;8.660;2023-02-14T14:26:00;12.00;99.90
17341;DHT22;8788;49.930;8.660;2023-02-14T14:28:30;12.00;99.90
17341;DHT22;8788;49.930;8.660;2023-02-14T14:30:59;12.20;99.90
17341;DHT22;8788;49.930;8.660;2023-02-14T14:33:28;12.40;99.90
17341;DHT22;8788;49.930;8.660;2023-02-14T14:35:58;12.80;99.90
17341;DHT22;8788;49.930;8.660;2023-02-14T14:38:26;13.20;99.90
17341;DHT22;8788;49.930;8.660;2023-02-14T14:40:54;13.70;99.90
17341;DHT22;8788;49.930;8.660;2023-02-14T14:43:25;14.30;99.90
17341;DHT22;8788;49.930;8.660;2023-02-14T14:45:56;16.30;99.90
17341;DHT22;8788;49.930;8.660;2023-02-14T14:48:28;20.40;99.50
17341;DHT22;8788;49.930;8.660;2023-02-14T14:50:57;24.00;90.50
17341;DHT22;8788;49.930;8.660;2023-02-14T14:53:27;26.50;79.40
17341;DHT22;8788;49.930;8.660;2023-02-14T14:55:55;28.00;70.70
17341;DHT22;8788;49.930;8.660;2023-02-14T14:58:32;28.90;64.70
17341;DHT22;8788;49.930;8.660;2023-02-14T15:01:02;29.40;61.40
17341;DHT22;8788;49.930;8.660;2023-02-14T15:03:29;29.90;60.00
17341;DHT22;8788;49.930;8.660;2023-02-14T15:06:05;29.90;57.70
17341;DHT22;8788;49.930;8.660;2023-02-14T15:08:34;30.20;56.70
17341;DHT22;8788;49.930;8.660;2023-02-14T15:11:06;30.30;56.00
17341;DHT22;8788;49.930;8.660;2023-02-14T15:13:38;30.40;54.80
17341;DHT22;8788;49.930;8.660;2023-02-14T15:16:22;30.20;54.00
17341;DHT22;8788;49.930;8.660;2023-02-14T15:18:54;29.80;54.00
17341;DHT22;8788;49.930;8.660;2023-02-14T15:21:22;29.60;54.00
17341;DHT22;8788;49.930;8.660;2023-02-14T15:23:50;29.40;54.10
17341;DHT22;8788;49.930;8.660;2023-02-14T15:26:24;29.10;53.60
17341;DHT22;8788;49.930;8.660;2023-02-14T15:28:54;28.50;52.80
17341;DHT22;8788;49.930;8.660;2023-02-14T15:31:26;27.90;52.80
17341;DHT22;8788;49.930;8.660;2023-02-14T15:33:54;27.50;53.00
17341;DHT22;8788;49.930;8.660;2023-02-14T15:36:23;26.70;53.00
17341;DHT22;8788;49.930;8.660;2023-02-14T15:38:51;24.30;54.10
17341;DHT22;8788;49.930;8.660;2023-02-14T15:41:19;21.30;57.10
17341;DHT22;8788;49.930;8.660;2023-02-14T15:43:49;18.50;60.70
17341;DHT22;8788;49.930;8.660;2023-02-14T15:46:18;16.50;65.00
17341;DHT22;8788;49.930;8.660;2023-02-14T15:48:53;15.10;68.00
17341;DHT22;8788;49.930;8.660;2023-02-14T15:51:24;14.00;70.40
17341;DHT22;8788;49.930;8.660;2023-02-14T15:53:54;13.20;72.60
17341;DHT22;8788;49.930;8.660;2023-02-14T15:56:25;12.70;74.30
17341;DHT22;8788;49.930;8.660;2023-02-14T15:58:57;12.30;75.80
17341;DHT22;8788;49.930;8.660;2023-02-14T16:01:26;12.00;77.60
17341;DHT22;8788;49.930;8.660;2023-02-14T16:03:56;11.50;78.30
17341;DHT22;8788;49.930;8.660;2023-02-14T16:06:36;10.80;79.50
17341;DHT22;8788;49.930;8.660;2023-02-14T16:09:06;10.20;81.30
17341;DHT22;8788;49.930;8.660;2023-02-14T16:11:34;9.80;82.80
17341;DHT22;8788;49.930;8.660;2023-02-14T16:14:29;9.40;84.40
17341;DHT22;8788;49.930;8.660;2023-02-14T16:17:02;9.10;86.20
17341;DHT22;8788;49.930;8.660;2023-02-14T16:19:36;9.00;86.70
17341;DHT22;8788;49.930;8.660;2023-02-14T16:22:03;8.80;87.30
17341;DHT22;8788;49.930;8.660;2023-02-14T16:24:31;8.70;88.00
17341;DHT22;8788;49.930;8.660;2023-02-14T16:26:59;8.50;88.60
17341;DHT22;8788;49.930;8.660;2023-02-14T16:29:31;8.40;89.60
17341;DHT22;8788;49.930;8.660;2023-02-14T16:32:07;8.20;90.40
17341;DHT22;8788;49.930;8.660;2023-02-14T16:34:36;8.00;91.00
17341;DHT22;8788;49.930;8.660;2023-02-14T16:37:06;7.80;91.60
17341;DHT22;8788;49.930;8.660;2023-02-14T16:39:34;7.60;92.50
17341;DHT22;8788;49.930;8.660;2023-02-14T16:42:03;7.40;93.30
17341;DHT22;8788;49.930;8.660;2023-02-14T16:44:31;7.20;94.40
17341;DHT22;8788;49.930;8.660;2023-02-14T16:47:00;7.00;95.40
17341;DHT22;8788;49.930;8.660;2023-02-14T16:49:30;6.90;96.60